Time;durP1;ratioP1;P1;durP2;ratioP2;P2;SDS_P1;SDS_P2;PMS_P1;PMS_P2;Temp;Humidity;BMP_temperature;BMP_pressure;BME280_temperature;BME280_humidity;BME280_pressure;Samples;Min_cycle;Max_cycle;Signal;HPM_P1;HPM_P2
2023/02/21 02:14:03;;;;;;;46.77;27.97;;;8.70;99.90;;;;;;4994710;28;20908;-78
2023/02/21 02:16:41;;;;;;;45.37;31.33;;;8.70;99.90;;;;;;4995057;28;20496;-78
2023/02/21 02:19:34;;;;;;;49.73;30.27;;;8.70;99.90;;;;;;4994858;28;20448;-78
2023/02/21 02:22:22;;;;;;;51.63;28.90;;;8.70;99.90;;;;;;4994665;28;20457;-78
2023/02/21 02:25:00;;;;;;;53.50;31.10;;;8.70;99.90;;;;;;4994745;28;20457;-79
2023/02/21 02:28:04;;;;;;;54.13;30.87;;;8.70;99.90;;;;;;4994671;28;20885;-79
2023/02/21 02:31:07;;;;;;;54.90;29.23;;;8.70;99.90;;;;;;4994900;28;20440;-78
2023/02/21 02:34:00;;;;;;;50.97;32.17;;;8.70;99.90;;;;;;4995766;28;20432;-78
2023/02/21 02:36:34;;;;;;;51.90;30.50;;;8.60;99.90;;;;;;4997078;28;20529;-79
2023/02/21 02:39:12;;;;;;;55.10;30.10;;;8.70;99.90;;;;;;4997830;28;20807;-78
2023/02/21 02:41:49;;;;;;;49.50;32.33;;;8.60;99.90;;;;;;4998103;28;20944;-78
2023/02/21 02:44:22;;;;;;;51.70;31.17;;;8.70;99.90;;;;;;4998218;28;20436;-79
2023/02/21 02:47:01;;;;;;;48.30;31.30;;;8.70;99.90;;;;;;4997721;28;20465;-79
2023/02/21 02:49:29;;;;;;;52.60;31.00;;;8.60;99.90;;;;;;4998807;28;20444;-79
2023/02/21 02:52:03;;;;;;;50.07;29.60;;;8.60;99.90;;;;;;4997560;28;20433;-80
2023/02/21 02:54:30;;;;;;;51.03;31.50;;;8.70;99.90;;;;;;4999102;28;20491;-79
2023/02/21 02:57:01;;;;;;;52.90;29.80;;;8.70;99.90;;;;;;4996762;28;20534;-79
2023/02/21 02:59:32;;;;;;;51.90;33.50;;;8.70;99.90;;;;;;4998911;28;20448;-79
2023/02/21 03:02:21;;;;;;;56.30;33.67;;;8.70;99.90;;;;;;4999593;28;20452;-80
2023/02/21 03:05:03;;;;;;;49.07;31.00;;;8.70;99.90;;;;;;4990799;28;20452;-79
2023/02/21 03:07:43;;;;;;;52.40;32.30;;;8.80;99.90;;;;;;5000142;28;20472;-78
2023/02/21 03:10:18;;;;;;;57.87;33.27;;;8.70;99.90;;;;;;5000919;28;20432;-79
2023/02/21 03:12:53;;;;;;;57.13;33.50;;;8.70;99.90;;;;;;5002817;28;20820;-79
2023/02/21 03:15:25;;;;;;;55.13;30.57;;;8.70;99.90;;;;;;5003481;28;20424;-79
2023/02/21 03:17:59;;;;;;;55.30;31.33;;;8.80;99.90;;;;;;5004103;28;20495;-79
2023/02/21 03:20:27;;;;;;;56.47;32.13;;;8.80;99.90;;;;;;5004220;28;20894;-78
2023/02/21 03:22:56;;;;;;;51.73;32.23;;;8.80;99.90;;;;;;5002059;28;20431;-78
2023/02/21 03:25:25;;;;;;;59.77;34.40;;;8.80;99.90;;;;;;5002727;28;20459;-79
2023/02/21 03:27:53;;;;;;;52.90;31.77;;;8.80;99.90;;;;;;5005405;28;20436;-78
2023/02/21 03:30:22;;;;;;;53.20;32.60;;;8.80;99.90;;;;;;5004442;28;20440;-78
2023/02/21 03:32:50;;;;;;;50.63;31.70;;;8.80;99.90;;;;;;5001239;28;20432;-78
2023/02/21 03:35:18;;;;;;;58.03;34.03;;;8.80;99.90;;;;;;4998840;28;20441;-78
2023/02/21 03:37:53;;;;;;;66.00;34.23;;;8.80;99.90;;;;;;4998470;28;20495;-77
2023/02/21 03:40:24;;;;;;;61.33;34.80;;;8.80;99.90;;;;;;4998963;28;20431;-77
2023/02/21 03:42:51;;;;;;;59.87;33.83;;;8.80;99.90;;;;;;4999632;28;20868;-79
2023/02/21 03:45:18;;;;;;;60.47;33.30;;;8.80;99.90;;;;;;4999490;28;20448;-78
2023/02/21 03:47:45;;;;;;;56.03;31.23;;;8.70;99.90;;;;;;4999098;28;20424;-78
2023/02/21 03:50:12;;;;;;;63.10;33.10;;;8.80;99.90;;;;;;4997410;28;20956;-78
2023/02/21 03:52:38;;;;;;;60.33;33.30;;;8.80;99.90;;;;;;4997393;28;20464;-78
2023/02/21 03:55:06;;;;;;;52.63;31.57;;;8.90;99.90;;;;;;4998636;28;20949;-79
2023/02/21 03:57:35;;;;;;;56.67;32.37;;;8.90;99.90;;;;;;5002466;28;20494;-78
2023/02/21 04:00:01;;;;;;;52.70;32.73;;;8.90;99.90;;;;;;5000047;28;20850;-79
2023/02/21 04:02:28;;;;;;;59.03;31.60;;;8.90;99.90;;;;;;4999058;28;20929;-78
2023/02/21 04:04:55;;;;;;;55.43;32.90;;;9.00;99.90;;;;;;4998272;28;20949;-78
2023/02/21 04:07:22;;;;;;;57.03;33.87;;;8.90;99.90;;;;;;4998026;28;20480;-79
2023/02/21 04:09:49;;;;;;;57.53;32.37;;;8.90;99.90;;;;;;4997569;28;20440;-78
2023/02/21 04:12:16;;;;;;;55.33;31.73;;;8.90;99.90;;;;;;4998177;28;20460;-78
2023/02/21 04:14:44;;;;;;;53.50;31.63;;;8.90;99.90;;;;;;4998615;28;20453;-78
2023/02/21 04:17:11;;;;;;;53.43;32.07;;;8.90;99.90;;;;;;4998862;28;20498;-79
2023/02/21 04:19:37;;;;;;;56.27;33.17;;;8.90;99.90;;;;;;4999440;28;20475;-78
2023/02/21 04:22:06;;;;;;;58.27;34.20;;;9.00;99.90;;;;;;5000664;28;20463;-78
2023/02/21 04:24:33;;;;;;;59.63;33.23;;;8.90;99.90;;;;;;5000492;28;20924;-78
2023/02/21 04:27:01;;;;;;;56.67;33.33;;;8.90;99.90;;;;;;5000664;28;20452;-79
2023/02/21 04:29:43;;;;;;;57.47;33.43;;;8.90;99.90;;;;;;5000173;28;20492;-78
2023/02/21 04:32:12;;;;;;;59.60;31.43;;;8.80;99.90;;;;;;5000004;28;20447;-79
2023/02/21 04:34:38;;;;;;;57.70;34.40;;;8.80;99.90;;;;;;5000519;28;20440;-78
2023/02/21 04:37:06;;;;;;;60.93;32.80;;;8.80;99.90;;;;;;4999400;28;20495;-79
2023/02/21 04:39:33;;;;;;;52.90;31.57;;;8.80;99.90;;;;;;4999454;28;20436;-78
2023/02/21 04:42:00;;;;;;;54.93;30.70;;;8.80;99.90;;;;;;4998240;28;20967;-78
2023/02/21 04:44:26;;;;;;;52.97;31.50;;;8.80;99.90;;;;;;4998448;28;20456;-79
2023/02/21 04:46:53;;;;;;;53.53;30.17;;;8.80;99.90;;;;;;4999857;28;20460;-79
2023/02/21 04:49:23;;;;;;;54.27;29.70;;;8.70;99.90;;;;;;5001163;28;20967;-79
2023/02/21 04:51:50;;;;;;;54.23;31.40;;;8.80;99.90;;;;;;4998866;28;20495;-79
2023/02/21 04:54:17;;;;;;;63.83;30.73;;;8.80;99.90;;;;;;4998221;28;20827;-79
2023/02/21 04:56:44;;;;;;;53.67;30.97;;;8.90;99.90;;;;;;4998310;28;20496;-78
2023/02/21 04:59:11;;;;;;;57.23;32.27;;;8.80;99.90;;;;;;4997304;28;20452;-79
2023/02/21 05:01:37;;;;;;;52.30;30.97;;;8.70;99.90;;;;;;4999083;28;20826;-79
2023/02/21 05:04:05;;;;;;;49.83;28.37;;;8.70;99.90;;;;;;4997133;28;20441;-79
2023/02/21 05:06:33;;;;;;;53.57;29.93;;;8.70;99.90;;;;;;4997135;28;20504;-79
2023/02/21 05:09:00;;;;;;;57.67;30.33;;;8.60;99.90;;;;;;4997139;28;20452;-79
2023/02/21 05:11:27;;;;;;;54.47;31.80;;;8.60;99.90;;;;;;4996766;28;20452;-78
2023/02/21 05:13:54;;;;;;;55.43;30.60;;;8.60;99.90;;;;;;4996031;28;20469;-78
2023/02/21 05:16:21;;;;;;;50.77;29.83;;;8.70;99.90;;;;;;4996602;28;20480;-79
2023/02/21 05:18:49;;;;;;;62.60;33.33;;;8.80;99.90;;;;;;4996594;28;20499;-78
2023/02/21 05:21:17;;;;;;;48.83;28.57;;;8.80;99.90;;;;;;4998034;28;20452;-78
2023/02/21 05:23:54;;;;;;;54.63;29.93;;;8.80;99.90;;;;;;4997522;28;20456;-79
2023/02/21 05:26:23;;;;;;;48.30;27.63;;;8.80;99.90;;;;;;4996343;28;20515;-78
2023/02/21 05:28:51;;;;;;;47.70;29.40;;;8.80;99.90;;;;;;4997185;28;20480;-78
2023/02/21 05:31:18;;;;;;;46.97;24.90;;;8.80;99.90;;;;;;4997034;28;20464;-78
2023/02/21 05:33:45;;;;;;;46.27;26.80;;;8.70;99.90;;;;;;4996622;28;20448;-79
2023/02/21 05:36:12;;;;;;;46.67;27.20;;;8.70;99.90;;;;;;4996837;28;20472;-79
2023/02/21 05:38:48;;;;;;;53.37;27.13;;;8.70;99.90;;;;;;4996609;28;20480;-79
2023/02/21 05:41:17;;;;;;;59.03;27.03;;;8.70;99.90;;;;;;4997511;28;20421;-79
2023/02/21 05:43:51;;;;;;;52.27;29.73;;;8.70;99.90;;;;;;4996752;28;20452;-79
2023/02/21 05:46:20;;;;;;;57.40;29.77;;;8.60;99.90;;;;;;4995402;28;21035;-79
2023/02/21 05:48:47;;;;;;;69.63;31.80;;;8.60;99.90;;;;;;4995746;28;20447;-79
2023/02/21 05:51:14;;;;;;;72.63;32.60;;;8.60;99.90;;;;;;4995605;28;20499;-79
2023/02/21 05:53:41;;;;;;;61.27;31.57;;;8.70;99.90;;;;;;4997540;28;20807;-78
2023/02/21 05:56:09;;;;;;;66.53;33.63;;;8.70;99.90;;;;;;4995978;28;20476;-79
2023/02/21 05:58:36;;;;;;;69.43;33.80;;;8.70;99.90;;;;;;4997952;28;20503;-79
2023/02/21 06:01:03;;;;;;;71.80;34.57;;;8.70;99.90;;;;;;5005453;28;20462;-79
2023/02/21 06:03:30;;;;;;;67.40;34.10;;;8.60;99.90;;;;;;5006657;28;20444;-79
2023/02/21 06:05:57;;;;;;;67.27;32.87;;;8.70;99.90;;;;;;5000573;28;20480;-79
2023/02/21 06:08:27;;;;;;;65.60;32.73;;;8.60;99.90;;;;;;4997820;28;20452;-79
2023/02/21 06:10:54;;;;;;;64.90;32.10;;;8.70;99.90;;;;;;4997268;28;20510;-79
2023/02/21 06:13:22;;;;;;;63.23;30.90;;;8.70;99.90;;;;;;4995329;28;20440;-79
2023/02/21 06:15:49;;;;;;;56.70;28.60;;;8.70;99.90;;;;;;4996135;28;20535;-79
2023/02/21 06:18:16;;;;;;;54.40;28.13;;;8.60;99.90;;;;;;4995347;28;20491;-79
2023/02/21 06:20:44;;;;;;;54.77;27.67;;;8.60;99.90;;;;;;4995975;28;20453;-78
2023/02/21 06:23:10;;;;;;;58.93;28.80;;;8.70;99.90;;;;;;4995150;28;20464;-78
2023/02/21 06:25:37;;;;;;;65.40;31.60;;;8.60;99.90;;;;;;4995895;28;20457;-79
2023/02/21 06:28:04;;;;;;;65.27;29.47;;;8.60;99.90;;;;;;4995253;28;20464;-79
2023/02/21 06:30:32;;;;;;;74.27;31.17;;;8.60;99.90;;;;;;4995888;28;20452;-78
2023/02/21 06:32:59;;;;;;;68.73;31.83;;;8.60;99.90;;;;;;4999085;28;20451;-79
2023/02/21 06:35:26;;;;;;;57.40;29.77;;;8.60;99.90;;;;;;5005725;28;20447;-79
2023/02/21 06:37:53;;;;;;;64.90;32.17;;;8.60;99.90;;;;;;5004746;28;21012;-78
2023/02/21 06:40:19;;;;;;;60.13;31.50;;;8.50;99.90;;;;;;5004524;28;20458;-78
2023/02/21 06:42:46;;;;;;;64.23;29.63;;;8.50;99.90;;;;;;5003540;28;20452;-79
2023/02/21 06:45:13;;;;;;;66.30;30.87;;;8.50;99.90;;;;;;5003776;28;20920;-78
2023/02/21 06:47:41;;;;;;;56.83;29.63;;;8.40;99.90;;;;;;5002833;28;20479;-78
2023/02/21 06:50:08;;;;;;;65.60;29.13;;;8.50;99.90;;;;;;5003437;28;20459;-78
2023/02/21 06:52:35;;;;;;;65.87;30.77;;;8.40;99.90;;;;;;5007866;28;20468;-78
2023/02/21 06:55:08;;;;;;;60.47;30.60;;;8.50;99.90;;;;;;5009566;28;20444;-79
2023/02/21 06:57:35;;;;;;;58.03;30.17;;;8.50;99.90;;;;;;5010542;28;20579;-79
2023/02/21 07:00:02;;;;;;;62.27;31.30;;;8.50;99.90;;;;;;5008478;28;20452;-79
2023/02/21 07:02:29;;;;;;;60.50;30.07;;;8.50;99.90;;;;;;5008694;28;20459;-79
2023/02/21 07:04:57;;;;;;;58.50;28.60;;;8.50;99.90;;;;;;5006392;28;20447;-78
2023/02/21 07:07:24;;;;;;;58.57;30.50;;;8.50;99.90;;;;;;5005315;28;20543;-79
2023/02/21 07:09:51;;;;;;;61.07;29.70;;;8.40;99.90;;;;;;5005949;28;20506;-79
2023/02/21 07:12:17;;;;;;;62.90;29.07;;;8.30;99.90;;;;;;5004295;28;20467;-79
2023/02/21 07:14:47;;;;;;;57.57;29.93;;;8.30;99.90;;;;;;5002114;28;20450;-78
2023/02/21 07:17:14;;;;;;;55.93;25.20;;;8.20;99.90;;;;;;5001738;28;20480;-79
2023/02/21 07:19:42;;;;;;;61.50;28.50;;;8.20;99.90;;;;;;5004147;28;20475;-79
2023/02/21 07:22:10;;;;;;;54.37;27.67;;;8.30;99.90;;;;;;5003322;28;20447;-79
2023/02/21 07:24:36;;;;;;;68.20;28.37;;;8.30;99.90;;;;;;5002718;28;20451;-79
2023/02/21 07:27:04;;;;;;;58.00;27.53;;;8.30;99.90;;;;;;5004346;28;20472;-79
2023/02/21 07:29:32;;;;;;;60.37;28.10;;;8.30;99.90;;;;;;5005197;28;20459;-79
2023/02/21 07:31:59;;;;;;;48.50;24.83;;;8.30;99.90;;;;;;5005850;28;20436;-78
2023/02/21 07:34:25;;;;;;;56.77;25.60;;;8.40;99.90;;;;;;5004622;28;20448;-79
2023/02/21 07:36:52;;;;;;;49.67;24.17;;;8.30;99.90;;;;;;5003573;28;20471;-79
2023/02/21 07:39:20;;;;;;;50.70;25.70;;;8.30;99.90;;;;;;5003473;28;20492;-79
2023/02/21 07:41:49;;;;;;;44.00;23.37;;;8.30;99.90;;;;;;5003913;28;20456;-79
2023/02/21 07:44:16;;;;;;;46.43;23.83;;;8.40;99.90;;;;;;5001142;28;20437;-79
2023/02/21 07:46:45;;;;;;;43.40;22.23;;;8.30;99.90;;;;;;5009285;28;20484;-79
2023/02/21 07:49:11;;;;;;;49.40;22.20;;;8.40;99.90;;;;;;5015907;28;20433;-79
2023/02/21 07:51:38;;;;;;;47.93;22.50;;;8.40;99.90;;;;;;5003662;28;20940;-79
2023/02/21 07:54:05;;;;;;;45.87;23.63;;;8.30;99.90;;;;;;4999918;28;20467;-79
2023/02/21 07:56:33;;;;;;;52.10;23.50;;;8.30;99.90;;;;;;4998043;28;20559;-79
2023/02/21 07:59:00;;;;;;;42.33;23.07;;;8.30;99.90;;;;;;5009926;28;20464;-79
2023/02/21 08:01:27;;;;;;;39.57;21.10;;;8.40;99.90;;;;;;5013510;28;20838;-74
2023/02/21 08:03:54;;;;;;;39.23;20.63;;;8.30;99.90;;;;;;5012511;28;20444;-75
2023/02/21 08:06:21;;;;;;;43.83;20.70;;;8.30;99.90;;;;;;5019692;28;20506;-75
2023/02/21 08:08:52;;;;;;;38.03;20.10;;;8.30;99.90;;;;;;5032937;28;20459;-75
2023/02/21 08:11:19;;;;;;;35.43;20.07;;;8.30;99.90;;;;;;5032217;28;20439;-75
2023/02/21 08:13:48;;;;;;;33.70;17.90;;;8.40;99.90;;;;;;5029315;28;20454;-75
2023/02/21 08:16:15;;;;;;;33.63;18.53;;;8.40;99.90;;;;;;5025793;28;20475;-79
2023/02/21 08:18:42;;;;;;;35.60;19.57;;;8.40;99.90;;;;;;5020176;28;20579;-79
2023/02/21 08:21:10;;;;;;;32.57;19.77;;;8.50;99.90;;;;;;5019439;28;20439;-78
2023/02/21 08:23:37;;;;;;;31.70;18.17;;;8.50;99.90;;;;;;5024044;28;20785;-79
2023/02/21 08:26:04;;;;;;;42.03;20.87;;;8.50;99.90;;;;;;5025483;28;20471;-79
2023/02/21 08:28:31;;;;;;;37.10;20.27;;;8.50;99.90;;;;;;5025546;28;20454;-79
2023/02/21 08:31:02;;;;;;;33.97;19.43;;;8.40;99.90;;;;;;5033181;28;20459;-80
2023/02/21 08:33:29;;;;;;;32.53;20.60;;;8.40;99.90;;;;;;5036503;28;20450;-80
2023/02/21 08:35:56;;;;;;;46.30;22.07;;;8.40;99.90;;;;;;5044727;28;20810;-79
2023/02/21 08:38:22;;;;;;;39.63;21.60;;;8.40;99.90;;;;;;5045423;28;20492;-79
2023/02/21 08:40:50;;;;;;;33.87;18.90;;;8.40;99.90;;;;;;5043543;28;20461;-79
2023/02/21 08:43:17;;;;;;;38.27;20.30;;;8.40;99.90;;;;;;5044409;28;20504;-79
2023/02/21 08:45:43;;;;;;;34.00;19.50;;;8.40;99.90;;;;;;5043496;28;20474;-80
2023/02/21 08:48:12;;;;;;;39.63;20.33;;;8.50;99.90;;;;;;5042821;28;20839;-79
2023/02/21 08:50:38;;;;;;;33.20;18.20;;;8.50;99.90;;;;;;5042741;28;20817;-79
2023/02/21 08:53:05;;;;;;;30.97;18.97;;;8.60;99.90;;;;;;5043345;28;20438;-79
2023/02/21 08:55:32;;;;;;;36.00;19.10;;;8.70;99.90;;;;;;5042200;28;20851;-79
2023/02/21 08:57:58;;;;;;;35.10;19.63;;;8.70;99.90;;;;;;5041595;28;20486;-79
2023/02/21 09:00:27;;;;;;;32.57;19.30;;;8.80;99.90;;;;;;5040432;28;20477;-79
2023/02/21 09:02:54;;;;;;;39.03;21.20;;;8.80;99.90;;;;;;5040652;28;20451;-80
2023/02/21 09:05:25;;;;;;;39.40;21.90;;;8.90;99.90;;;;;;5040452;28;20450;-79
2023/02/21 09:07:57;;;;;;;41.20;22.00;;;8.80;99.90;;;;;;5040514;28;20446;-79
2023/02/21 09:10:25;;;;;;;48.17;24.80;;;8.90;99.90;;;;;;5040738;28;20455;-80
2023/02/21 09:12:53;;;;;;;52.83;24.63;;;9.00;99.90;;;;;;5039199;28;20439;-79
2023/02/21 09:15:20;;;;;;;49.70;25.30;;;9.00;99.90;;;;;;5039514;28;20464;-79
2023/02/21 09:17:48;;;;;;;46.87;22.27;;;9.10;99.90;;;;;;5038790;28;20446;-78
2023/02/21 09:20:18;;;;;;;46.50;22.83;;;9.10;99.90;;;;;;5039499;28;20473;-79
2023/02/21 09:22:46;;;;;;;49.87;23.20;;;9.10;99.90;;;;;;5038467;28;20474;-79
2023/02/21 09:25:16;;;;;;;49.10;24.77;;;9.10;99.90;;;;;;5038371;28;21013;-79
2023/02/21 09:27:43;;;;;;;47.00;22.20;;;9.10;99.90;;;;;;5037920;28;20850;-79
2023/02/21 09:30:12;;;;;;;43.30;22.37;;;9.30;99.90;;;;;;5038876;28;20458;-80
2023/02/21 09:32:40;;;;;;;42.37;24.60;;;9.30;99.90;;;;;;5038393;28;20455;-79
2023/02/21 09:35:08;;;;;;;46.37;23.47;;;9.30;99.90;;;;;;5038937;28;20530;-79
2023/02/21 09:37:37;;;;;;;46.20;22.80;;;9.20;99.90;;;;;;5038196;28;20470;-79
2023/02/21 09:40:11;;;;;;;45.80;24.50;;;9.30;99.90;;;;;;5036687;28;20505;-78
2023/02/21 09:42:40;;;;;;;41.57;22.47;;;9.30;99.90;;;;;;5037159;28;20435;-79
2023/02/21 09:45:10;;;;;;;47.57;22.40;;;9.40;99.90;;;;;;5037882;28;20981;-78
2023/02/21 09:47:38;;;;;;;43.37;21.90;;;9.40;99.90;;;;;;5036768;28;20467;-79
2023/02/21 09:50:12;;;;;;;44.57;22.93;;;9.40;99.90;;;;;;5036775;28;20462;-78
2023/02/21 09:52:41;;;;;;;37.50;20.40;;;9.50;99.90;;;;;;5036672;28;20446;-79
2023/02/21 09:55:19;;;;;;;44.70;24.57;;;9.60;99.90;;;;;;5036831;28;20450;-78
2023/02/21 09:57:46;;;;;;;37.03;20.27;;;9.70;99.90;;;;;;5035988;28;20441;-78
2023/02/21 10:00:18;;;;;;;38.43;19.20;;;9.70;99.90;;;;;;5035760;28;20489;-78
2023/02/21 10:02:55;;;;;;;39.53;19.20;;;9.80;99.90;;;;;;5035542;28;20431;-79
2023/02/21 10:05:33;;;;;;;31.10;17.90;;;9.70;99.90;;;;;;5030635;28;20451;-79
2023/02/21 10:08:09;;;;;;;32.50;17.90;;;9.70;99.90;;;;;;5016154;28;20931;-79
2023/02/21 10:10:44;;;;;;;32.70;17.83;;;9.70;99.90;;;;;;5015537;28;20435;-79
2023/02/21 10:13:22;;;;;;;34.27;18.30;;;9.70;99.90;;;;;;5016543;28;20435;-79
2023/02/21 10:15:54;;;;;;;33.20;18.13;;;9.70;99.90;;;;;;5021819;28;20504;-79
2023/02/21 10:18:35;;;;;;;30.70;16.30;;;9.60;99.90;;;;;;5025319;28;20463;-79
2023/02/21 10:21:04;;;;;;;22.83;13.27;;;9.60;99.90;;;;;;5022122;28;20432;-79
2023/02/21 10:23:38;;;;;;;25.97;14.93;;;9.60;99.90;;;;;;5018354;28;20456;-79
2023/02/21 10:26:14;;;;;;;26.00;15.57;;;9.60;99.90;;;;;;5020473;28;20475;-80
2023/02/21 10:28:41;;;;;;;24.07;14.27;;;9.70;99.90;;;;;;5020779;28;20439;-79
2023/02/21 10:31:11;;;;;;;21.87;13.07;;;9.60;99.90;;;;;;5021340;28;20435;-80
2023/02/21 10:33:39;;;;;;;22.27;13.67;;;9.60;99.90;;;;;;5021063;28;20443;-79
2023/02/21 10:36:13;;;;;;;21.83;13.30;;;9.70;99.90;;;;;;5018145;28;20474;-79
2023/02/21 10:38:51;;;;;;;27.17;15.67;;;9.80;99.90;;;;;;5016156;28;20471;-79
2023/02/21 10:41:21;;;;;;;20.53;13.00;;;9.80;99.90;;;;;;5016070;28;20439;-79
2023/02/21 10:43:52;;;;;;;22.77;13.93;;;9.80;99.90;;;;;;5015203;28;20447;-79
2023/02/21 10:46:33;;;;;;;23.77;13.83;;;9.90;99.90;;;;;;5014848;28;20472;-79
2023/02/21 10:49:20;;;;;;;24.60;15.83;;;9.90;99.90;;;;;;5015723;28;20435;-78
2023/02/21 10:51:46;;;;;;;21.53;14.00;;;10.10;99.90;;;;;;5014995;28;20431;-79
2023/02/21 10:54:19;;;;;;;22.90;15.07;;;10.10;99.90;;;;;;5015338;28;20443;-79
2023/02/21 10:56:52;;;;;;;25.20;14.57;;;10.00;99.90;;;;;;5014965;28;20470;-79
2023/02/21 10:59:26;;;;;;;24.20;13.70;;;10.00;99.90;;;;;;5014931;28;20490;-78
2023/02/21 11:01:54;;;;;;;27.57;16.10;;;10.00;99.90;;;;;;5015416;28;20506;-79
2023/02/21 11:04:27;;;;;;;23.10;14.30;;;10.10;99.90;;;;;;5015575;28;20468;-79
2023/02/21 11:06:56;;;;;;;22.67;15.00;;;10.10;99.90;;;;;;5014822;28;20499;-80
2023/02/21 11:09:31;;;;;;;24.07;15.13;;;10.00;99.90;;;;;;5014907;28;20444;-80
2023/02/21 11:12:06;;;;;;;24.23;15.00;;;10.00;99.90;;;;;;5015127;28;20446;-79
2023/02/21 11:14:35;;;;;;;22.83;14.63;;;10.00;99.90;;;;;;5015022;28;20443;-79
2023/02/21 11:17:07;;;;;;;26.23;16.93;;;10.10;99.90;;;;;;5015350;28;20455;-79
2023/02/21 11:19:49;;;;;;;26.83;16.07;;;10.00;99.90;;;;;;5017785;28;20471;-79
2023/02/21 11:22:22;;;;;;;19.60;14.13;;;10.00;99.90;;;;;;5020099;28;20530;-79
2023/02/21 11:24:59;;;;;;;23.57;15.30;;;10.00;99.90;;;;;;5019737;28;20428;-79
2023/02/21 11:27:30;;;;;;;22.77;14.60;;;10.00;99.90;;;;;;5019590;28;20498;-79
2023/02/21 11:30:22;;;;;;;24.00;15.13;;;10.10;99.90;;;;;;5020212;28;20495;-79
2023/02/21 11:32:51;;;;;;;24.33;14.77;;;10.20;99.90;;;;;;5020327;28;20439;-79
2023/02/21 11:35:24;;;;;;;24.23;14.60;;;10.20;99.90;;;;;;5019900;28;20789;-79
2023/02/21 11:37:54;;;;;;;21.73;13.07;;;10.20;99.90;;;;;;5019448;28;20439;-79
2023/02/21 11:40:24;;;;;;;23.70;14.70;;;10.20;99.90;;;;;;5019938;28;20486;-78
2023/02/21 11:43:09;;;;;;;21.03;13.80;;;10.10;99.90;;;;;;5019442;28;20435;-80
2023/02/21 11:45:40;;;;;;;21.57;13.83;;;10.10;99.90;;;;;;5019490;28;20449;-80
2023/02/21 11:48:13;;;;;;;19.33;12.40;;;10.30;99.90;;;;;;5034196;28;20481;-80
2023/02/21 11:50:48;;;;;;;23.67;14.50;;;10.40;99.90;;;;;;5018870;28;20944;-79
2023/02/21 11:53:26;;;;;;;25.17;15.43;;;10.40;99.90;;;;;;5019325;28;20443;-80
2023/02/21 11:56:11;;;;;;;29.20;16.00;;;10.50;99.90;;;;;;5019301;28;20892;-80
2023/02/21 11:58:47;;;;;;;21.70;14.47;;;10.50;99.90;;;;;;5018497;28;20459;-80
2023/02/21 12:01:20;;;;;;;22.07;15.43;;;10.50;99.90;;;;;;5019238;28;20443;-79
2023/02/21 12:04:10;;;;;;;23.93;14.47;;;10.60;99.90;;;;;;5018685;28;20440;-80
2023/02/21 12:06:45;;;;;;;26.60;14.87;;;10.40;99.90;;;;;;5017293;28;20475;-79
2023/02/21 12:09:16;;;;;;;24.60;15.10;;;10.40;99.90;;;;;;5017241;28;20435;-80
2023/02/21 12:11:58;;;;;;;24.60;14.57;;;10.40;99.90;;;;;;5016811;28;20435;-80
2023/02/21 12:14:40;;;;;;;25.53;14.00;;;10.40;99.90;;;;;;5017060;28;20928;-79
2023/02/21 12:17:22;;;;;;;23.07;15.40;;;10.40;99.90;;;;;;5018113;28;20475;-79
2023/02/21 12:20:23;;;;;;;23.73;14.53;;;10.40;99.90;;;;;;5019201;28;20850;-79
2023/02/21 12:23:07;;;;;;;21.47;13.37;;;10.50;99.90;;;;;;5029610;28;20423;-78
2023/02/21 12:25:43;;;;;;;21.57;13.03;;;10.50;99.90;;;;;;5025851;28;20912;-80
2023/02/21 12:28:25;;;;;;;21.80;14.67;;;10.50;99.90;;;;;;5019175;28;20444;-79
2023/02/21 12:31:06;;;;;;;21.13;13.33;;;10.60;99.90;;;;;;5016809;28;20442;-79
2023/02/21 12:33:42;;;;;;;23.87;14.20;;;10.70;99.90;;;;;;5017211;28;20448;-80
2023/02/21 12:36:26;;;;;;;23.20;13.70;;;10.80;99.90;;;;;;5016819;28;20474;-79
2023/02/21 12:38:59;;;;;;;19.60;13.07;;;10.80;99.90;;;;;;5016623;28;20455;-79
2023/02/21 12:41:49;;;;;;;22.37;13.53;;;10.90;99.90;;;;;;5017018;28;20467;-80
2023/02/21 12:44:27;;;;;;;23.53;14.30;;;10.90;99.90;;;;;;5016229;28;20912;-79
2023/02/21 12:47:00;;;;;;;19.40;12.40;;;10.90;99.90;;;;;;5017523;28;20474;-79
2023/02/21 12:49:32;;;;;;;25.00;15.20;;;10.90;99.90;;;;;;5016634;28;20916;-79
2023/02/21 12:52:06;;;;;;;21.70;14.70;;;10.90;99.90;;;;;;5018509;28;20474;-79
2023/02/21 12:54:41;;;;;;;25.27;14.10;;;11.00;99.90;;;;;;5016507;28;20466;-80
2023/02/21 12:57:12;;;;;;;22.10;13.93;;;11.00;99.90;;;;;;5016716;28;20482;-79
2023/02/21 12:59:55;;;;;;;23.00;14.97;;;11.10;99.90;;;;;;5017147;28;20475;-79
2023/02/21 13:02:30;;;;;;;21.23;13.00;;;11.20;99.90;;;;;;5017097;28;20443;-80
2023/02/21 13:05:05;;;;;;;20.23;13.67;;;11.20;99.90;;;;;;5016889;28;20442;-79
2023/02/21 13:07:37;;;;;;;21.27;14.00;;;11.30;99.90;;;;;;5016347;28;20479;-80
2023/02/21 13:10:16;;;;;;;19.37;13.27;;;11.30;99.90;;;;;;5017908;28;20436;-79
2023/02/21 13:12:47;;;;;;;24.60;15.00;;;11.30;99.90;;;;;;5016908;28;20454;-80
2023/02/21 13:15:19;;;;;;;26.63;13.93;;;11.30;99.90;;;;;;5016753;28;20417;-80
2023/02/21 13:18:01;;;;;;;27.60;15.07;;;11.30;99.90;;;;;;5016584;28;20435;-80
2023/02/21 13:20:33;;;;;;;20.30;14.20;;;11.30;99.90;;;;;;5017108;28;20475;-80
2023/02/21 13:23:40;;;;;;;28.87;16.20;;;11.30;99.90;;;;;;5016200;28;20857;-79
2023/02/21 13:26:40;;;;;;;24.13;14.10;;;11.30;99.90;;;;;;5015729;28;20471;-79
2023/02/21 13:29:17;;;;;;;28.13;15.07;;;11.30;99.90;;;;;;5015937;28;20455;-79
2023/02/21 13:31:47;;;;;;;27.13;16.47;;;11.40;99.90;;;;;;5016288;28;20412;-79
2023/02/21 13:34:23;;;;;;;24.80;15.40;;;11.50;99.90;;;;;;5015541;28;20924;-80
2023/02/21 13:36:50;;;;;;;28.07;16.27;;;11.50;99.90;;;;;;5021036;28;20471;-80
2023/02/21 13:39:19;;;;;;;27.20;15.77;;;11.60;99.90;;;;;;5022487;28;20472;-80
2023/02/21 13:41:49;;;;;;;25.37;16.60;;;11.60;99.90;;;;;;5021031;28;20451;-80
2023/02/21 13:44:23;;;;;;;23.10;14.30;;;11.70;99.90;;;;;;5021135;28;20534;-80
2023/02/21 13:47:05;;;;;;;23.90;15.13;;;11.80;99.90;;;;;;5022309;28;20527;-79
2023/02/21 13:49:41;;;;;;;23.30;14.80;;;11.80;99.90;;;;;;5020750;28;20436;-80
2023/02/21 13:52:42;;;;;;;24.30;15.30;;;11.80;99.90;;;;;;5019517;28;20439;-79
2023/02/21 13:55:26;;;;;;;22.80;14.73;;;11.90;99.90;;;;;;5020651;28;20435;-80
2023/02/21 13:58:43;;;;;;;24.20;15.00;;;11.90;99.90;;;;;;5019622;28;20464;-80
2023/02/21 14:01:23;;;;;;;23.47;16.60;;;11.90;99.90;;;;;;5019692;28;20480;-79
2023/02/21 14:03:52;;;;;;;24.77;16.07;;;11.90;99.90;;;;;;5018470;28;20435;-80
2023/02/21 14:06:37;;;;;;;30.53;17.07;;;12.00;99.90;;;;;;5019398;28;20502;-80
2023/02/21 14:09:10;;;;;;;24.63;16.17;;;12.00;99.90;;;;;;5027695;28;20451;-79
2023/02/21 14:11:44;;;;;;;22.47;15.33;;;12.00;99.90;;;;;;5024022;28;20799;-79
2023/02/21 14:14:25;;;;;;;30.53;16.87;;;11.90;99.90;;;;;;5017939;28;20428;-79
2023/02/21 14:16:59;;;;;;;29.13;16.07;;;11.90;99.90;;;;;;5015202;28;20478;-79
2023/02/21 14:19:34;;;;;;;26.10;16.43;;;12.00;99.90;;;;;;5014896;28;20442;-79
2023/02/21 14:22:05;;;;;;;25.63;17.30;;;12.00;99.90;;;;;;5014377;28;20490;-79
2023/02/21 14:24:35;;;;;;;22.10;14.47;;;12.00;99.90;;;;;;5015175;28;20446;-79
2023/02/21 14:27:06;;;;;;;23.67;15.63;;;12.00;99.90;;;;;;5014739;28;20987;-79
2023/02/21 14:29:35;;;;;;;20.10;13.70;;;11.90;99.90;;;;;;5015297;28;20816;-79
2023/02/21 14:32:27;;;;;;;26.37;16.93;;;12.00;99.90;;;;;;5014444;28;20448;-79
2023/02/21 14:34:57;;;;;;;22.03;15.43;;;12.20;99.90;;;;;;5014871;28;20798;-79
2023/02/21 14:37:30;;;;;;;25.07;15.57;;;12.30;99.90;;;;;;5016241;28;20471;-79
2023/02/21 14:40:00;;;;;;;25.57;17.13;;;12.50;99.90;;;;;;5016109;28;20464;-79
2023/02/21 14:42:46;;;;;;;24.83;15.87;;;12.60;99.90;;;;;;5015487;28;20965;-79
2023/02/21 14:45:30;;;;;;;25.43;16.23;;;12.70;99.90;;;;;;5014202;28;20455;-79
2023/02/21 14:48:30;;;;;;;23.97;16.90;;;12.70;99.90;;;;;;5017634;28;20449;-79
2023/02/21 14:51:39;;;;;;;23.23;16.10;;;12.80;99.60;;;;;;5017022;28;20455;-79
2023/02/21 14:54:25;;;;;;;23.70;16.67;;;12.60;98.50;;;;;;4985859;28;20460;-80
2023/02/21 14:57:04;;;;;;;26.67;18.97;;;12.60;98.90;;;;;;5020520;28;20529;-79
2023/02/21 14:59:49;;;;;;;30.50;20.00;;;12.60;99.20;;;;;;5019785;28;20449;-79
2023/02/21 15:02:39;;;;;;;29.73;19.30;;;12.70;99.30;;;;;;5018588;28;20436;-80
2023/02/21 15:05:19;;;;;;;26.67;17.80;;;12.80;99.60;;;;;;5018085;28;20437;-79
2023/02/21 15:08:05;;;;;;;30.07;19.60;;;12.80;99.30;;;;;;5017432;28;20458;-79
2023/02/21 15:10:39;;;;;;;32.60;20.80;;;12.60;98.90;;;;;;5018258;28;20428;-79
2023/02/21 15:13:27;;;;;;;31.20;19.90;;;12.40;99.40;;;;;;5018340;28;20903;-79